createdAt,value
2019-05-22T00:02:44.912Z,33.50
2019-05-22T00:05:24.647Z,32.95
2019-05-22T00:07:53.635Z,34.03
2019-05-22T00:10:30.423Z,35.75
2019-05-22T00:12:59.639Z,31.87
2019-05-22T00:15:29.095Z,33.10
2019-05-22T00:17:58.853Z,33.48
2019-05-22T00:20:29.481Z,30.57
2019-05-22T00:23:00.246Z,31.23
2019-05-22T00:25:34.782Z,32.67
2019-05-22T00:28:04.202Z,30.70
2019-05-22T00:30:35.656Z,30.45
2019-05-22T00:33:04.622Z,30.12
2019-05-22T00:35:36.980Z,30.17
2019-05-22T00:38:06.863Z,31.20
2019-05-22T00:40:37.674Z,29.92
2019-05-22T00:43:13.901Z,31.40
2019-05-22T00:45:37.960Z,30.08
2019-05-22T00:48:07.643Z,28.80
2019-05-22T00:50:40.823Z,28.62
2019-05-22T00:53:39.815Z,32.20
2019-05-22T00:56:25.668Z,31.80
2019-05-22T00:59:01.830Z,30.50
2019-05-22T01:01:38.039Z,28.77
2019-05-22T01:04:08.126Z,27.02
2019-05-22T01:06:36.555Z,27.67
2019-05-22T01:09:08.813Z,29.02
2019-05-22T01:11:39.427Z,25.85
2019-05-22T01:14:09.275Z,25.20
2019-05-22T01:16:38.715Z,22.87
2019-05-22T01:19:07.846Z,24.65
2019-05-22T01:21:37.384Z,22.32
2019-05-22T01:24:06.914Z,24.80
2019-05-22T01:26:36.003Z,25.02
2019-05-22T01:29:06.486Z,24.05
2019-05-22T01:31:38.341Z,27.10
2019-05-22T01:34:11.926Z,25.48
2019-05-22T01:36:46.668Z,26.45
2019-05-22T01:39:25.933Z,25.30
2019-05-22T01:41:56.252Z,24.32
2019-05-22T01:44:24.606Z,21.85
2019-05-22T01:46:53.727Z,22.10
2019-05-22T01:49:24.698Z,21.60
2019-05-22T01:51:54.569Z,19.40
2019-05-22T01:54:22.465Z,18.65
2019-05-22T01:56:51.414Z,19.62
2019-05-22T01:59:20.426Z,19.05
2019-05-22T02:01:48.525Z,19.30
2019-05-22T02:04:19.209Z,18.85
2019-05-22T02:06:47.834Z,16.67
2019-05-22T02:09:28.607Z,17.23
2019-05-22T02:12:02.511Z,16.55
2019-05-22T02:14:34.088Z,17.65
2019-05-22T02:17:02.801Z,16.77
2019-05-22T02:19:31.201Z,17.70
2019-05-22T02:22:02.068Z,16.95
2019-05-22T02:24:31.985Z,16.30
2019-05-22T02:27:03.955Z,17.62
2019-05-22T02:29:32.663Z,19.12
2019-05-22T02:32:01.188Z,17.45
2019-05-22T02:34:30.157Z,16.45
2019-05-22T02:36:59.798Z,16.35
2019-05-22T02:39:35.898Z,14.93
2019-05-22T02:42:06.506Z,15.75
2019-05-22T02:44:35.045Z,14.75
2019-05-22T02:47:17.808Z,15.90
2019-05-22T02:49:37.902Z,15.25
2019-05-22T02:52:08.904Z,15.45
2019-05-22T02:54:37.832Z,15.20
2019-05-22T02:57:09.063Z,14.80
2019-05-22T02:59:42.583Z,14.33
2019-05-22T03:02:12.026Z,16.97
2019-05-22T03:04:54.535Z,16.05
2019-05-22T03:07:22.771Z,16.90
2019-05-22T03:09:50.906Z,14.78
2019-05-22T03:12:19.904Z,14.98
2019-05-22T03:14:48.707Z,13.88
2019-05-22T03:17:32.497Z,15.10
2019-05-22T03:20:04.103Z,14.98
2019-05-22T03:22:39.858Z,15.75
2019-05-22T03:25:15.643Z,14.00
2019-05-22T03:27:46.821Z,16.12
2019-05-22T03:30:27.382Z,15.90
2019-05-22T03:32:58.540Z,15.23
2019-05-22T03:35:29.898Z,15.10
2019-05-22T03:37:59.190Z,16.55
2019-05-22T03:40:28.736Z,15.03
2019-05-22T03:42:58.329Z,16.27
2019-05-22T03:45:32.519Z,16.23
2019-05-22T03:48:04.910Z,14.05
2019-05-22T03:50:34.553Z,14.40
2019-05-22T03:53:08.438Z,16.95
2019-05-22T03:55:36.861Z,16.75
2019-05-22T03:58:08.157Z,15.25
2019-05-22T04:00:36.058Z,14.80
2019-05-22T04:03:04.924Z,15.63
2019-05-22T04:05:32.915Z,15.65
2019-05-22T04:08:02.395Z,14.85
2019-05-22T04:10:40.963Z,15.13
2019-05-22T04:13:07.735Z,15.43
2019-05-22T04:15:38.466Z,13.72
2019-05-22T04:18:16.781Z,13.88
2019-05-22T04:20:45.255Z,14.45
2019-05-22T04:23:13.164Z,14.43
2019-05-22T04:25:42.999Z,13.38
2019-05-22T04:28:11.321Z,14.25
2019-05-22T04:30:39.854Z,15.40
2019-05-22T04:33:07.932Z,14.47
2019-05-22T04:35:37.044Z,14.78
2019-05-22T04:38:06.171Z,14.58
2019-05-22T04:40:59.669Z,14.30
2019-05-22T04:43:34.339Z,13.83
2019-05-22T04:46:05.467Z,13.00
2019-05-22T04:48:35.019Z,14.18
2019-05-22T04:51:29.880Z,13.03
2019-05-22T04:53:57.907Z,12.55
2019-05-22T04:56:30.900Z,13.58
2019-05-22T04:59:02.796Z,12.60
2019-05-22T05:01:31.167Z,12.25
2019-05-22T05:03:59.912Z,12.68
2019-05-22T05:06:29.477Z,13.80
2019-05-22T05:08:57.461Z,12.15
2019-05-22T05:11:26.129Z,11.43
2019-05-22T05:13:54.478Z,10.10
2019-05-22T05:16:23.741Z,7.90
2019-05-22T05:18:52.874Z,8.33
2019-05-22T05:21:20.948Z,7.92
2019-05-22T05:23:49.241Z,7.42
2019-05-22T05:26:17.791Z,8.03
2019-05-22T05:28:46.320Z,7.12
2019-05-22T05:31:14.262Z,7.40
2019-05-22T05:33:55.774Z,8.15
2019-05-22T05:36:23.750Z,8.25
2019-05-22T05:38:52.562Z,8.20
2019-05-22T05:41:20.803Z,7.80
2019-05-22T05:43:48.955Z,8.63
2019-05-22T05:46:16.826Z,9.10
2019-05-22T05:48:45.315Z,8.98
2019-05-22T05:51:30.898Z,10.13
2019-05-22T05:54:01.933Z,8.75
2019-05-22T05:56:31.634Z,19.32
2019-05-22T05:59:00.216Z,21.07
2019-05-22T06:01:38.720Z,13.35
2019-05-22T06:04:06.670Z,10.78
2019-05-22T06:07:00.846Z,9.58
2019-05-22T06:09:31.020Z,9.25
2019-05-22T06:12:05.217Z,8.28
2019-05-22T06:14:32.956Z,8.78
2019-05-22T06:17:31.054Z,10.03
2019-05-22T06:20:00.855Z,8.98
2019-05-22T06:22:29.480Z,8.73
2019-05-22T06:24:59.647Z,9.68
2019-05-22T06:27:35.457Z,8.50
2019-05-22T06:30:06.906Z,9.18
2019-05-22T06:32:55.243Z,12.03
2019-05-22T06:35:24.938Z,13.38
2019-05-22T06:37:56.699Z,10.35
2019-05-22T06:40:25.515Z,9.88
2019-05-22T06:43:21.556Z,9.03
2019-05-22T06:45:49.411Z,7.80
2019-05-22T06:48:17.253Z,8.30
2019-05-22T06:50:45.116Z,8.23
2019-05-22T06:53:13.184Z,7.85
2019-05-22T06:55:41.039Z,8.68
2019-05-22T06:58:09.318Z,7.10
2019-05-22T07:00:37.485Z,6.80
2019-05-22T07:03:06.602Z,7.50
2019-05-22T07:05:34.843Z,6.97
2019-05-22T07:08:03.413Z,7.95
2019-05-22T07:10:31.764Z,8.35
2019-05-22T07:13:00.650Z,7.60
2019-05-22T07:15:50.237Z,7.75
2019-05-22T07:18:22.391Z,6.67
2019-05-22T07:20:50.235Z,7.50
2019-05-22T07:23:25.655Z,7.00
2019-05-22T07:25:54.816Z,7.47
2019-05-22T07:28:23.772Z,6.92
2019-05-22T07:30:52.436Z,7.78
2019-05-22T07:33:20.850Z,7.33
2019-05-22T07:36:07.836Z,8.78
2019-05-22T07:38:19.188Z,8.45
2019-05-22T07:40:50.582Z,8.25
2019-05-22T07:43:17.577Z,7.70
2019-05-22T07:45:45.608Z,8.00
2019-05-22T07:48:13.861Z,8.15
2019-05-22T07:50:49.270Z,7.70
2019-05-22T07:53:17.579Z,7.75
2019-05-22T07:55:45.546Z,8.18
2019-05-22T07:58:15.021Z,7.60
2019-05-22T08:00:45.237Z,7.65
2019-05-22T08:03:13.122Z,7.12
2019-05-22T08:05:42.465Z,7.20
2019-05-22T08:08:11.016Z,6.72
2019-05-22T08:10:40.193Z,5.95
2019-05-22T08:13:08.826Z,6.45
2019-05-22T08:15:37.053Z,6.03
2019-05-22T08:18:05.022Z,6.80
2019-05-22T08:20:33.547Z,6.72
2019-05-22T08:23:01.786Z,6.53
2019-05-22T08:25:30.450Z,6.50
2019-05-22T08:27:58.298Z,7.45
2019-05-22T08:30:26.119Z,6.58
2019-05-22T08:32:54.094Z,5.37
2019-05-22T08:35:22.586Z,5.50
2019-05-22T08:37:50.767Z,6.20
2019-05-22T08:40:18.725Z,5.60
2019-05-22T08:42:48.135Z,6.03
2019-05-22T08:45:16.066Z,6.15
2019-05-22T08:47:44.306Z,6.15
2019-05-22T08:50:12.226Z,6.10
2019-05-22T08:52:40.830Z,6.15
2019-05-22T08:55:09.924Z,7.50
2019-05-22T08:57:38.163Z,5.75
2019-05-22T09:00:06.259Z,6.35
2019-05-22T09:02:34.150Z,6.08
2019-05-22T09:05:02.218Z,4.70
2019-05-22T09:07:30.553Z,5.20
2019-05-22T09:09:58.466Z,5.80
2019-05-22T09:12:26.827Z,5.22
2019-05-22T09:14:56.152Z,5.50
2019-05-22T09:17:24.098Z,5.45
2019-05-22T09:19:51.966Z,6.10
2019-05-22T09:22:19.802Z,5.92
2019-05-22T09:24:48.672Z,6.03
2019-05-22T09:27:17.178Z,6.80
2019-05-22T09:29:47.826Z,6.50
2019-05-22T09:32:16.974Z,7.33
2019-05-22T09:34:45.554Z,6.37
2019-05-22T09:37:14.787Z,6.00
2019-05-22T09:39:42.601Z,7.20
2019-05-22T09:42:11.358Z,6.75
2019-05-22T09:44:39.286Z,7.42
2019-05-22T09:47:08.392Z,6.80
2019-05-22T09:49:36.318Z,6.70
2019-05-22T09:52:04.507Z,6.08
2019-05-22T09:54:32.775Z,6.60
2019-05-22T09:57:01.900Z,6.92
2019-05-22T09:59:31.271Z,6.50
2019-05-22T10:01:59.694Z,6.70
2019-05-22T10:04:28.450Z,6.58
2019-05-22T10:06:56.437Z,7.47
2019-05-22T10:09:25.392Z,5.95
2019-05-22T10:11:53.939Z,5.80
2019-05-22T10:14:22.405Z,6.45
2019-05-22T10:16:50.793Z,8.13
2019-05-22T10:19:19.112Z,6.80
2019-05-22T10:21:48.019Z,7.55
2019-05-22T10:24:16.287Z,6.62
2019-05-22T10:26:44.159Z,6.67
2019-05-22T10:29:12.264Z,6.08
2019-05-22T10:31:41.448Z,6.83
2019-05-22T10:34:09.301Z,7.12
2019-05-22T10:36:37.637Z,7.60
2019-05-22T10:39:06.151Z,6.58
2019-05-22T10:41:33.981Z,8.03
2019-05-22T10:44:01.995Z,7.78
2019-05-22T10:46:30.508Z,8.00
2019-05-22T10:48:58.339Z,8.68
2019-05-22T10:51:26.343Z,8.68
2019-05-22T10:53:54.223Z,8.25
2019-05-22T10:56:22.114Z,9.50
2019-05-22T10:58:50.087Z,9.50
2019-05-22T11:01:17.933Z,8.60
2019-05-22T11:03:46.311Z,8.65
2019-05-22T11:06:14.321Z,8.28
2019-05-22T11:08:42.513Z,8.55
2019-05-22T11:11:10.562Z,8.15
2019-05-22T11:13:39.028Z,7.30
2019-05-22T11:16:07.897Z,7.20
2019-05-22T11:18:35.798Z,7.03
2019-05-22T11:21:03.593Z,7.05
2019-05-22T11:23:31.459Z,7.58
2019-05-22T11:25:59.289Z,5.70
2019-05-22T11:28:28.145Z,5.60
2019-05-22T11:31:09.715Z,11.30
2019-05-22T11:33:37.835Z,8.90
2019-05-22T11:36:06.803Z,8.70
2019-05-22T11:38:34.725Z,5.92
2019-05-22T11:41:03.412Z,5.95
2019-05-22T11:43:31.581Z,5.05
2019-05-22T11:46:00.055Z,5.45
2019-05-22T11:48:27.951Z,5.95
2019-05-22T11:51:00.677Z,5.42
2019-05-22T11:53:27.055Z,6.10
2019-05-22T11:55:55.103Z,6.50
2019-05-22T11:58:22.999Z,6.35
2019-05-22T12:00:51.606Z,7.28
2019-05-22T12:03:20.329Z,5.85
2019-05-22T12:05:48.476Z,6.30
2019-05-22T12:08:17.829Z,6.00
2019-05-22T12:10:46.722Z,7.05
2019-05-22T12:13:15.055Z,6.70
2019-05-22T12:15:43.156Z,6.97
2019-05-22T12:18:11.508Z,6.60
2019-05-22T12:20:39.501Z,6.70
2019-05-22T12:23:07.516Z,7.62
2019-05-22T12:25:36.099Z,6.80
2019-05-22T12:28:04.419Z,7.65
2019-05-22T12:30:32.364Z,7.10
2019-05-22T12:33:02.453Z,7.22
2019-05-22T12:35:34.094Z,7.12
2019-05-22T12:38:04.252Z,6.75
2019-05-22T12:40:35.102Z,6.85
2019-05-22T12:43:03.945Z,6.28
2019-05-22T12:45:33.341Z,6.33
2019-05-22T12:48:02.036Z,6.20
2019-05-22T12:50:31.800Z,5.78
2019-05-22T12:53:02.096Z,6.22
2019-05-22T12:55:30.270Z,6.28
2019-05-22T12:57:58.594Z,6.72
2019-05-22T13:00:30.283Z,6.85
2019-05-22T13:03:00.078Z,6.92
2019-05-22T13:05:28.526Z,5.97
2019-05-22T13:07:56.833Z,5.72
2019-05-22T13:10:25.758Z,6.42
2019-05-22T13:12:53.649Z,6.22
2019-05-22T13:15:23.084Z,6.70
2019-05-22T13:17:51.861Z,6.92
2019-05-22T13:20:20.579Z,6.20
2019-05-22T13:22:49.382Z,5.70
2019-05-22T13:25:19.469Z,5.60
2019-05-22T13:27:47.927Z,5.72
2019-05-22T13:30:17.119Z,7.08
2019-05-22T13:32:45.221Z,6.62
2019-05-22T13:35:13.335Z,8.05
2019-05-22T13:37:41.239Z,6.33
2019-05-22T13:40:26.630Z,7.53
2019-05-22T13:42:39.279Z,6.62
2019-05-22T13:45:07.451Z,6.20
2019-05-22T13:47:35.782Z,5.97
2019-05-22T13:50:03.978Z,6.25
2019-05-22T13:52:32.109Z,6.65
2019-05-22T13:55:00.168Z,6.97
2019-05-22T13:57:28.923Z,6.03
2019-05-22T13:59:56.914Z,6.00
2019-05-22T14:02:27.344Z,5.50
2019-05-22T14:04:55.130Z,4.83
2019-05-22T14:07:22.978Z,5.05
2019-05-22T14:09:50.864Z,5.35
2019-05-22T14:12:18.767Z,4.50
2019-05-22T14:14:46.641Z,5.60
2019-05-22T14:17:14.458Z,4.65
2019-05-22T14:19:42.334Z,5.20
2019-05-22T14:22:10.271Z,5.20
2019-05-22T14:24:38.104Z,4.70
2019-05-22T14:27:06.125Z,4.60
2019-05-22T14:29:34.238Z,4.55
2019-05-22T14:32:03.335Z,5.05
2019-05-22T14:34:31.187Z,4.50
2019-05-22T14:36:59.298Z,5.17
2019-05-22T14:39:28.050Z,4.17
2019-05-22T14:41:56.028Z,4.00
2019-05-22T14:44:24.095Z,3.87
2019-05-22T14:46:51.983Z,3.95
2019-05-22T14:49:20.859Z,3.75
2019-05-22T14:51:50.023Z,3.85
2019-05-22T14:54:18.625Z,3.65
2019-05-22T14:56:46.530Z,3.72
2019-05-22T14:59:14.373Z,4.50
2019-05-22T15:01:42.366Z,4.00
2019-05-22T15:04:10.386Z,3.20
2019-05-22T15:06:38.250Z,4.35
2019-05-22T15:09:07.577Z,5.10
2019-05-22T15:11:35.559Z,3.87
2019-05-22T15:14:04.907Z,4.50
2019-05-22T15:16:33.147Z,4.28
2019-05-22T15:19:00.960Z,4.40
2019-05-22T15:21:28.911Z,3.62
2019-05-22T15:23:57.269Z,3.75
2019-05-22T15:26:25.303Z,4.25
2019-05-22T15:28:53.148Z,3.65
2019-05-22T15:31:21.099Z,4.12
2019-05-22T15:33:48.950Z,3.58
2019-05-22T15:36:18.946Z,3.60
2019-05-22T15:38:47.214Z,4.10
2019-05-22T15:41:15.176Z,3.83
2019-05-22T15:43:44.996Z,3.70
2019-05-22T15:46:14.775Z,4.05
2019-05-22T15:48:43.739Z,3.12
2019-05-22T15:51:13.655Z,3.40
2019-05-22T15:53:42.411Z,3.30
2019-05-22T15:56:10.757Z,3.52
2019-05-22T15:58:41.883Z,3.40
2019-05-22T16:01:09.913Z,3.55
2019-05-22T16:03:38.078Z,3.17
2019-05-22T16:06:07.530Z,3.12
2019-05-22T16:08:35.782Z,3.10
2019-05-22T16:11:04.868Z,3.15
2019-05-22T16:13:34.940Z,4.03
2019-05-22T16:16:03.773Z,3.60
2019-05-22T16:18:35.075Z,3.08
2019-05-22T16:21:03.576Z,3.00
2019-05-22T16:23:32.683Z,3.08
2019-05-22T16:26:01.572Z,3.65
2019-05-22T16:28:33.143Z,3.60
2019-05-22T16:30:59.579Z,3.20
2019-05-22T16:33:27.550Z,3.65
2019-05-22T16:35:55.398Z,3.20
2019-05-22T16:38:24.399Z,3.83
2019-05-22T16:40:52.702Z,3.12
2019-05-22T16:43:20.634Z,3.95
2019-05-22T16:45:48.886Z,3.47
2019-05-22T16:48:28.469Z,3.65
2019-05-22T16:50:47.006Z,3.65
2019-05-22T16:53:15.966Z,3.60
2019-05-22T16:55:43.790Z,3.70
2019-05-22T16:58:11.742Z,3.20
2019-05-22T17:00:40.598Z,3.75
2019-05-22T17:03:09.134Z,3.83
2019-05-22T17:05:38.179Z,3.85
2019-05-22T17:08:06.167Z,3.60
2019-05-22T17:10:35.435Z,3.77
2019-05-22T17:13:04.649Z,3.50
2019-05-22T17:15:34.163Z,3.62
2019-05-22T17:18:02.087Z,4.42
2019-05-22T17:20:32.281Z,4.10
2019-05-22T17:23:00.200Z,3.45
2019-05-22T17:25:30.571Z,4.10
2019-05-22T17:27:58.502Z,4.35
2019-05-22T17:30:27.538Z,3.72
2019-05-22T17:32:55.896Z,3.87
2019-05-22T17:35:24.314Z,3.62
2019-05-22T17:37:52.606Z,3.30
2019-05-22T17:40:22.453Z,3.75
2019-05-22T17:42:53.153Z,3.10
2019-05-22T17:45:23.506Z,3.33
2019-05-22T17:47:51.877Z,4.22
2019-05-22T17:50:26.657Z,3.05
2019-05-22T17:52:51.015Z,3.72
2019-05-22T17:55:20.694Z,3.75
2019-05-22T17:57:49.327Z,3.50
2019-05-22T18:00:34.999Z,4.37
2019-05-22T18:03:04.223Z,4.53
2019-05-22T18:05:33.354Z,3.85
2019-05-22T18:08:01.337Z,4.00
2019-05-22T18:10:31.979Z,4.42
2019-05-22T18:12:59.955Z,3.98
2019-05-22T18:15:28.254Z,3.60
2019-05-22T18:17:57.080Z,3.85
2019-05-22T18:20:25.213Z,3.40
2019-05-22T18:22:53.189Z,3.70
2019-05-22T18:25:23.180Z,3.25
2019-05-22T18:27:52.202Z,3.70
2019-05-22T18:30:21.127Z,3.45
2019-05-22T18:32:49.507Z,3.72
2019-05-22T18:35:17.649Z,3.70
2019-05-22T18:37:46.782Z,3.87
2019-05-22T18:40:14.891Z,3.62
2019-05-22T18:42:43.164Z,3.65
2019-05-22T18:45:13.862Z,3.77
2019-05-22T18:47:42.306Z,3.80
2019-05-22T18:50:11.398Z,4.03
2019-05-22T18:52:43.194Z,4.10
2019-05-22T18:55:27.418Z,4.15
2019-05-22T18:57:57.249Z,3.55
2019-05-22T19:00:26.861Z,4.20
2019-05-22T19:02:55.414Z,4.08
2019-05-22T19:05:25.988Z,3.60
2019-05-22T19:07:53.894Z,3.90
2019-05-22T19:10:23.100Z,3.70
2019-05-22T19:12:51.359Z,4.83
2019-05-22T19:15:20.017Z,3.85
2019-05-22T19:17:49.931Z,5.33
2019-05-22T19:20:17.940Z,4.22
2019-05-22T19:22:59.457Z,4.70
2019-05-22T19:25:17.473Z,4.42
2019-05-22T19:27:46.619Z,4.67
2019-05-22T19:30:17.154Z,3.70
2019-05-22T19:32:45.477Z,3.80
2019-05-22T19:35:15.690Z,3.42
2019-05-22T19:37:44.543Z,3.62
2019-05-22T19:40:13.347Z,3.90
2019-05-22T19:42:41.717Z,4.47
2019-05-22T19:45:11.172Z,5.05
2019-05-22T19:47:41.262Z,5.35
2019-05-22T19:50:22.650Z,4.60
2019-05-22T19:52:42.152Z,4.80
2019-05-22T19:55:15.504Z,4.85
2019-05-22T19:57:44.766Z,4.67
2019-05-22T20:00:13.423Z,4.40
2019-05-22T20:02:44.368Z,4.45
2019-05-22T20:05:16.475Z,4.50
2019-05-22T20:07:45.428Z,5.12
2019-05-22T20:10:14.093Z,4.33
2019-05-22T20:12:43.573Z,5.20
2019-05-22T20:15:12.290Z,5.05
2019-05-22T20:17:40.185Z,4.72
2019-05-22T20:20:10.440Z,4.83
2019-05-22T20:22:38.827Z,4.45
2019-05-22T20:25:07.626Z,5.40
2019-05-22T20:27:36.982Z,4.95
2019-05-22T20:30:05.398Z,6.03
2019-05-22T20:32:34.051Z,5.80
2019-05-22T20:35:02.759Z,5.15
2019-05-22T20:37:32.419Z,6.45
2019-05-22T20:40:02.192Z,5.25
2019-05-22T20:42:33.030Z,5.53
2019-05-22T20:45:01.406Z,5.20
2019-05-22T20:47:31.341Z,5.70
2019-05-22T20:49:59.861Z,6.30
2019-05-22T20:52:29.951Z,5.50
2019-05-22T20:54:58.002Z,6.50
2019-05-22T20:57:27.034Z,6.03
2019-05-22T20:59:57.725Z,6.45
2019-05-22T21:02:27.428Z,6.65
2019-05-22T21:04:57.120Z,8.05
2019-05-22T21:07:28.979Z,6.58
2019-05-22T21:09:57.232Z,6.85
2019-05-22T21:12:29.621Z,6.50
2019-05-22T21:14:57.554Z,7.25
2019-05-22T21:17:26.228Z,7.90
2019-05-22T21:19:59.255Z,6.62
2019-05-22T21:22:27.593Z,7.33
2019-05-22T21:24:59.347Z,7.15
2019-05-22T21:27:27.609Z,7.85
2019-05-22T21:29:57.266Z,7.58
2019-05-22T21:32:28.303Z,7.45
2019-05-22T21:34:59.256Z,7.80
2019-05-22T21:37:27.328Z,7.95
2019-05-22T21:39:56.405Z,7.80
2019-05-22T21:42:24.977Z,8.63
2019-05-22T21:44:55.973Z,9.10
2019-05-22T21:47:24.756Z,7.83
2019-05-22T21:49:55.482Z,7.92
2019-05-22T21:52:24.957Z,8.20
2019-05-22T21:54:53.158Z,8.25
2019-05-22T21:57:27.339Z,8.78
2019-05-22T21:59:56.047Z,9.00
2019-05-22T22:02:30.664Z,10.35
2019-05-22T22:04:59.573Z,9.30
2019-05-22T22:07:27.579Z,9.13
2019-05-22T22:09:56.146Z,8.85
2019-05-22T22:12:27.987Z,9.25
2019-05-22T22:14:55.704Z,10.05
2019-05-22T22:17:26.461Z,10.48
2019-05-22T22:19:55.338Z,10.45
2019-05-22T22:22:27.983Z,9.70
2019-05-22T22:24:57.358Z,11.18
2019-05-22T22:27:26.843Z,11.55
2019-05-22T22:29:57.039Z,10.60
2019-05-22T22:32:28.495Z,11.68
2019-05-22T22:34:56.357Z,10.78
2019-05-22T22:37:24.772Z,12.00
2019-05-22T22:39:57.294Z,10.70
2019-05-22T22:42:32.641Z,11.15
2019-05-22T22:45:00.922Z,10.85
2019-05-22T22:47:35.091Z,11.08
2019-05-22T22:50:06.269Z,10.72
2019-05-22T22:52:34.599Z,11.93
2019-05-22T22:55:04.224Z,12.45
2019-05-22T22:57:33.235Z,10.80
2019-05-22T23:00:02.160Z,11.55
2019-05-22T23:02:32.771Z,11.05
2019-05-22T23:05:01.235Z,11.48
2019-05-22T23:07:31.763Z,10.03
2019-05-22T23:10:01.750Z,10.70
2019-05-22T23:12:47.705Z,9.98
2019-05-22T23:15:18.408Z,11.28
2019-05-22T23:17:48.362Z,10.15
2019-05-22T23:20:18.795Z,10.45
2019-05-22T23:22:47.770Z,10.98
2019-05-22T23:25:20.007Z,11.45
2019-05-22T23:27:48.498Z,10.63
2019-05-22T23:30:18.659Z,10.88
2019-05-22T23:32:47.006Z,11.33
2019-05-22T23:35:16.904Z,12.73
2019-05-22T23:37:46.597Z,10.15
2019-05-22T23:40:15.951Z,10.53
2019-05-22T23:42:45.635Z,9.18
2019-05-22T23:45:15.907Z,12.40
2019-05-22T23:47:51.315Z,11.65
2019-05-22T23:50:19.296Z,12.33
2019-05-22T23:52:49.722Z,12.50
2019-05-22T23:55:17.755Z,10.80
2019-05-22T23:57:47.176Z,11.30
